Airfield :
LOGIN :

Register | Disclaimer

   EN    FR    IT 

 










Legend :    VFR   Marginal VFR   IFR   Intensive IFR   Very Intensive IFR
Visi :
Ceiling :
>= 8 km
>= 3000ft
5 to 8 km
1000 to 3000 ft
1500m to 5 km
500 to 1000 ft
800 to 1500m
200 to 500 ft
< 800m
< 200 ft
Symbols :   Thunderstorms  Fog  Heavy snow  Heavy precipitations  Wind > 20 kt
SIGMETs :     Misc.  Thunderstorms  Icing  Turbulence  Mountain Waves  Volcanic Ashes






- Airport Elevation : 459 ft
- IATA code : CER


LFRC - Cherbourg / Maupertus

CURRENT METAR :
  • 202130Z AUTO 07008KT 040V100 9999 BKN047/// OVC062/// ///CB 14/12 Q1006

EXPIRED METARs :
  • 202100Z AUTO 07008KT CAVOK 14/11 Q1006
  • 202030Z AUTO 07008KT 9999 -RA NSC 14/11 Q1006
  • 202000Z AUTO 07007KT CAVOK 14/12 Q1006
  • 201930Z AUTO 07007KT CAVOK 14/12 Q1006
  • 201900Z AUTO 06007KT CAVOK 14/12 Q1006

TAF TAF LFRC
Valid from the 20 at 15:00 until the 21 at 00:00 UTC


201400Z 2015/2024 04012KT 9999 BKN020
TEMPO 2015/2024 3000 SHRA BKN010 BKN015CB
PROB40
TEMPO 2018/2024 06015G25KT 3000 TSRA BKN010 BKN015CB



MET'MAP, your aeronautical weather chart ! - Copyright ORBIFLY December 2007 - Disclaimer

ORBIFLY MET'MAP TEAM :

Programming & Development : Alexandra Zaïnal
Concept & original design : Baudouin d'Aumeries
Assistance for programming : Marc-Olivier Méhu
Technical & hardware support : Manuel Goepfert

Contact : metmap@orbifly.com




SOURCES & CREDITS :

   NOAA